sensor_id;sensor_type;location;lat;lon;timestamp;P1;durP1;ratioP1;P2;durP2;ratioP2
46607;SDS011;32330;51.936;7.184;2023-04-03T03:46:16;3.47;;;1.20;;
46607;SDS011;32330;51.936;7.184;2023-04-03T03:48:44;3.30;;;1.33;;
46607;SDS011;32330;51.936;7.184;2023-04-03T03:51:11;6.70;;;1.65;;
46607;SDS011;32330;51.936;7.184;2023-04-03T03:53:38;4.72;;;1.85;;
46607;SDS011;32330;51.936;7.184;2023-04-03T03:56:08;4.88;;;1.52;;
46607;SDS011;32330;51.936;7.184;2023-04-03T03:58:38;7.10;;;1.70;;
46607;SDS011;32330;51.936;7.184;2023-04-03T04:01:05;3.10;;;1.20;;
46607;SDS011;32330;51.936;7.184;2023-04-03T04:03:40;2.60;;;1.35;;
46607;SDS011;32330;51.936;7.184;2023-04-03T04:06:09;4.18;;;1.60;;
46607;SDS011;32330;51.936;7.184;2023-04-03T04:08:36;4.85;;;1.55;;
46607;SDS011;32330;51.936;7.184;2023-04-03T04:11:05;4.03;;;1.80;;
46607;SDS011;32330;51.936;7.184;2023-04-03T04:13:33;4.70;;;1.45;;
46607;SDS011;32330;51.936;7.184;2023-04-03T04:16:00;5.68;;;1.50;;
46607;SDS011;32330;51.936;7.184;2023-04-03T04:18:29;3.80;;;1.48;;
46607;SDS011;32330;51.936;7.184;2023-04-03T04:20:57;4.05;;;1.67;;
46607;SDS011;32330;51.936;7.184;2023-04-03T04:23:24;3.85;;;1.35;;
46607;SDS011;32330;51.936;7.184;2023-04-03T04:25:52;4.18;;;1.30;;
46607;SDS011;32330;51.936;7.184;2023-04-03T04:28:19;3.28;;;1.88;;
46607;SDS011;32330;51.936;7.184;2023-04-03T04:30:49;2.80;;;1.30;;
46607;SDS011;32330;51.936;7.184;2023-04-03T04:33:17;16.63;;;1.90;;
46607;SDS011;32330;51.936;7.184;2023-04-03T04:35:46;3.78;;;1.40;;
46607;SDS011;32330;51.936;7.184;2023-04-03T04:38:16;6.13;;;1.58;;
46607;SDS011;32330;51.936;7.184;2023-04-03T04:40:44;3.35;;;1.60;;
46607;SDS011;32330;51.936;7.184;2023-04-03T04:43:11;3.47;;;1.33;;
46607;SDS011;32330;51.936;7.184;2023-04-03T04:45:40;4.00;;;1.70;;
46607;SDS011;32330;51.936;7.184;2023-04-03T04:48:09;5.75;;;1.50;;
46607;SDS011;32330;51.936;7.184;2023-04-03T04:50:36;3.25;;;1.38;;
46607;SDS011;32330;51.936;7.184;2023-04-03T04:53:03;5.63;;;1.80;;
46607;SDS011;32330;51.936;7.184;2023-04-03T04:55:31;5.22;;;1.30;;
46607;SDS011;32330;51.936;7.184;2023-04-03T04:57:58;3.70;;;1.30;;
46607;SDS011;32330;51.936;7.184;2023-04-03T05:00:26;4.75;;;1.50;;
46607;SDS011;32330;51.936;7.184;2023-04-03T05:02:53;3.85;;;1.30;;
46607;SDS011;32330;51.936;7.184;2023-04-03T05:05:20;3.67;;;2.15;;
46607;SDS011;32330;51.936;7.184;2023-04-03T05:07:48;6.38;;;1.75;;
46607;SDS011;32330;51.936;7.184;2023-04-03T05:10:15;7.18;;;1.35;;
46607;SDS011;32330;51.936;7.184;2023-04-03T05:12:46;6.00;;;1.77;;
46607;SDS011;32330;51.936;7.184;2023-04-03T05:15:13;8.60;;;2.05;;
46607;SDS011;32330;51.936;7.184;2023-04-03T05:17:40;4.18;;;1.75;;
46607;SDS011;32330;51.936;7.184;2023-04-03T05:20:11;4.57;;;1.90;;
46607;SDS011;32330;51.936;7.184;2023-04-03T05:22:39;6.82;;;1.50;;
46607;SDS011;32330;51.936;7.184;2023-04-03T05:25:08;4.63;;;1.83;;
46607;SDS011;32330;51.936;7.184;2023-04-03T05:27:37;6.65;;;1.70;;
46607;SDS011;32330;51.936;7.184;2023-04-03T05:30:06;4.15;;;1.75;;
46607;SDS011;32330;51.936;7.184;2023-04-03T05:32:35;4.97;;;1.30;;
46607;SDS011;32330;51.936;7.184;2023-04-03T05:35:13;4.78;;;1.48;;
46607;SDS011;32330;51.936;7.184;2023-04-03T05:37:41;3.65;;;1.48;;
46607;SDS011;32330;51.936;7.184;2023-04-03T05:40:09;4.43;;;1.70;;
46607;SDS011;32330;51.936;7.184;2023-04-03T05:42:40;4.45;;;1.70;;
46607;SDS011;32330;51.936;7.184;2023-04-03T05:45:09;7.75;;;1.42;;
46607;SDS011;32330;51.936;7.184;2023-04-03T05:47:37;2.95;;;1.25;;
46607;SDS011;32330;51.936;7.184;2023-04-03T05:50:06;5.25;;;1.55;;
46607;SDS011;32330;51.936;7.184;2023-04-03T05:52:35;5.30;;;1.55;;
46607;SDS011;32330;51.936;7.184;2023-04-03T05:55:04;4.00;;;1.35;;
46607;SDS011;32330;51.936;7.184;2023-04-03T05:57:33;2.58;;;1.05;;
46607;SDS011;32330;51.936;7.184;2023-04-03T06:00:01;4.78;;;1.50;;
46607;SDS011;32330;51.936;7.184;2023-04-03T06:02:40;3.85;;;1.23;;
46607;SDS011;32330;51.936;7.184;2023-04-03T06:05:12;4.97;;;1.67;;
46607;SDS011;32330;51.936;7.184;2023-04-03T06:07:40;5.60;;;1.70;;
46607;SDS011;32330;51.936;7.184;2023-04-03T06:10:10;5.57;;;1.35;;
46607;SDS011;32330;51.936;7.184;2023-04-03T06:12:37;6.07;;;1.38;;
46607;SDS011;32330;51.936;7.184;2023-04-03T06:15:05;3.63;;;1.42;;
46607;SDS011;32330;51.936;7.184;2023-04-03T06:17:33;7.18;;;1.77;;
46607;SDS011;32330;51.936;7.184;2023-04-03T06:20:01;3.60;;;1.40;;
46607;SDS011;32330;51.936;7.184;2023-04-03T06:22:29;5.10;;;1.67;;
46607;SDS011;32330;51.936;7.184;2023-04-03T06:24:56;4.95;;;1.50;;
46607;SDS011;32330;51.936;7.184;2023-04-03T06:27:23;5.90;;;1.60;;
46607;SDS011;32330;51.936;7.184;2023-04-03T06:29:51;4.05;;;1.42;;
46607;SDS011;32330;51.936;7.184;2023-04-03T06:32:17;3.38;;;1.17;;
46607;SDS011;32330;51.936;7.184;2023-04-03T06:34:45;4.68;;;1.80;;
46607;SDS011;32330;51.936;7.184;2023-04-03T06:37:14;7.15;;;1.90;;
46607;SDS011;32330;51.936;7.184;2023-04-03T06:39:42;4.20;;;1.63;;
46607;SDS011;32330;51.936;7.184;2023-04-03T06:42:10;4.72;;;1.48;;
46607;SDS011;32330;51.936;7.184;2023-04-03T06:44:46;5.10;;;1.40;;
46607;SDS011;32330;51.936;7.184;2023-04-03T06:47:13;8.80;;;1.42;;
46607;SDS011;32330;51.936;7.184;2023-04-03T06:49:41;4.13;;;1.30;;
46607;SDS011;32330;51.936;7.184;2023-04-03T06:52:08;5.25;;;1.65;;
46607;SDS011;32330;51.936;7.184;2023-04-03T06:54:38;5.57;;;1.30;;
46607;SDS011;32330;51.936;7.184;2023-04-03T06:57:06;4.82;;;1.45;;
46607;SDS011;32330;51.936;7.184;2023-04-03T06:59:33;4.15;;;1.70;;
46607;SDS011;32330;51.936;7.184;2023-04-03T07:02:01;3.55;;;1.20;;
46607;SDS011;32330;51.936;7.184;2023-04-03T07:04:28;4.38;;;1.30;;
46607;SDS011;32330;51.936;7.184;2023-04-03T07:06:56;3.95;;;1.20;;
46607;SDS011;32330;51.936;7.184;2023-04-03T07:09:22;4.55;;;1.17;;
46607;SDS011;32330;51.936;7.184;2023-04-03T07:11:51;6.45;;;1.48;;
46607;SDS011;32330;51.936;7.184;2023-04-03T07:14:18;4.05;;;1.42;;
46607;SDS011;32330;51.936;7.184;2023-04-03T07:16:44;3.85;;;1.20;;
46607;SDS011;32330;51.936;7.184;2023-04-03T07:19:11;3.85;;;1.17;;
46607;SDS011;32330;51.936;7.184;2023-04-03T07:21:39;4.32;;;1.42;;
46607;SDS011;32330;51.936;7.184;2023-04-03T07:24:07;4.15;;;1.10;;
46607;SDS011;32330;51.936;7.184;2023-04-03T07:26:34;3.45;;;1.17;;
46607;SDS011;32330;51.936;7.184;2023-04-03T07:29:02;4.18;;;1.05;;
46607;SDS011;32330;51.936;7.184;2023-04-03T07:31:29;3.35;;;1.10;;
46607;SDS011;32330;51.936;7.184;2023-04-03T07:33:56;3.75;;;1.35;;
46607;SDS011;32330;51.936;7.184;2023-04-03T07:36:23;6.07;;;1.25;;
46607;SDS011;32330;51.936;7.184;2023-04-03T07:38:50;4.53;;;1.38;;
46607;SDS011;32330;51.936;7.184;2023-04-03T07:41:18;4.47;;;1.30;;
46607;SDS011;32330;51.936;7.184;2023-04-03T07:43:46;4.05;;;1.02;;
46607;SDS011;32330;51.936;7.184;2023-04-03T07:46:16;4.07;;;1.10;;
46607;SDS011;32330;51.936;7.184;2023-04-03T07:48:43;4.18;;;1.52;;
46607;SDS011;32330;51.936;7.184;2023-04-03T07:51:11;3.03;;;1.30;;
46607;SDS011;32330;51.936;7.184;2023-04-03T07:53:38;5.35;;;1.65;;
46607;SDS011;32330;51.936;7.184;2023-04-03T07:56:06;3.95;;;1.17;;
46607;SDS011;32330;51.936;7.184;2023-04-03T07:58:34;3.03;;;0.90;;
46607;SDS011;32330;51.936;7.184;2023-04-03T08:01:02;3.75;;;1.10;;
46607;SDS011;32330;51.936;7.184;2023-04-03T08:03:30;4.75;;;1.25;;
46607;SDS011;32330;51.936;7.184;2023-04-03T08:06:01;4.25;;;1.15;;
46607;SDS011;32330;51.936;7.184;2023-04-03T08:08:29;2.63;;;1.10;;
46607;SDS011;32330;51.936;7.184;2023-04-03T08:10:58;3.85;;;1.17;;
46607;SDS011;32330;51.936;7.184;2023-04-03T08:13:28;3.00;;;1.15;;
46607;SDS011;32330;51.936;7.184;2023-04-03T08:15:55;2.72;;;1.00;;
46607;SDS011;32330;51.936;7.184;2023-04-03T08:18:24;3.47;;;0.98;;
46607;SDS011;32330;51.936;7.184;2023-04-03T08:20:53;3.60;;;1.00;;
46607;SDS011;32330;51.936;7.184;2023-04-03T08:23:20;4.93;;;1.20;;
46607;SDS011;32330;51.936;7.184;2023-04-03T08:25:47;3.05;;;1.00;;
46607;SDS011;32330;51.936;7.184;2023-04-03T08:28:14;6.13;;;0.90;;
46607;SDS011;32330;51.936;7.184;2023-04-03T08:30:41;4.07;;;1.15;;
46607;SDS011;32330;51.936;7.184;2023-04-03T08:33:09;1.98;;;0.88;;
46607;SDS011;32330;51.936;7.184;2023-04-03T08:35:38;2.60;;;1.30;;
46607;SDS011;32330;51.936;7.184;2023-04-03T08:38:08;3.05;;;0.90;;
46607;SDS011;32330;51.936;7.184;2023-04-03T08:40:35;3.45;;;1.05;;
46607;SDS011;32330;51.936;7.184;2023-04-03T08:43:11;2.67;;;0.90;;
46607;SDS011;32330;51.936;7.184;2023-04-03T08:45:55;2.28;;;0.73;;
46607;SDS011;32330;51.936;7.184;2023-04-03T08:48:26;4.03;;;1.13;;
46607;SDS011;32330;51.936;7.184;2023-04-03T08:50:58;3.05;;;1.10;;
46607;SDS011;32330;51.936;7.184;2023-04-03T08:53:28;3.55;;;1.00;;
46607;SDS011;32330;51.936;7.184;2023-04-03T08:56:00;3.63;;;0.77;;
46607;SDS011;32330;51.936;7.184;2023-04-03T08:58:33;3.53;;;1.52;;
46607;SDS011;32330;51.936;7.184;2023-04-03T09:01:14;2.88;;;0.90;;
46607;SDS011;32330;51.936;7.184;2023-04-03T09:03:45;3.10;;;1.10;;
46607;SDS011;32330;51.936;7.184;2023-04-03T09:06:13;2.08;;;1.10;;
46607;SDS011;32330;51.936;7.184;2023-04-03T09:08:45;3.45;;;1.42;;
46607;SDS011;32330;51.936;7.184;2023-04-03T09:11:16;3.45;;;0.95;;
46607;SDS011;32330;51.936;7.184;2023-04-03T09:13:49;2.47;;;0.93;;
46607;SDS011;32330;51.936;7.184;2023-04-03T09:16:32;1.50;;;0.63;;
46607;SDS011;32330;51.936;7.184;2023-04-03T09:19:17;2.38;;;0.85;;
46607;SDS011;32330;51.936;7.184;2023-04-03T09:21:48;3.45;;;1.10;;
46607;SDS011;32330;51.936;7.184;2023-04-03T09:24:17;2.17;;;0.80;;
46607;SDS011;32330;51.936;7.184;2023-04-03T09:26:45;2.55;;;0.95;;
46607;SDS011;32330;51.936;7.184;2023-04-03T09:29:18;3.45;;;0.90;;
46607;SDS011;32330;51.936;7.184;2023-04-03T09:31:48;2.30;;;0.90;;
46607;SDS011;32330;51.936;7.184;2023-04-03T09:34:17;3.45;;;0.80;;
46607;SDS011;32330;51.936;7.184;2023-04-03T09:36:49;3.17;;;1.00;;
46607;SDS011;32330;51.936;7.184;2023-04-03T09:39:20;2.85;;;0.85;;
46607;SDS011;32330;51.936;7.184;2023-04-03T09:41:54;3.92;;;1.00;;
46607;SDS011;32330;51.936;7.184;2023-04-03T09:44:24;2.13;;;0.73;;
46607;SDS011;32330;51.936;7.184;2023-04-03T09:46:53;2.50;;;0.82;;
46607;SDS011;32330;51.936;7.184;2023-04-03T09:49:20;3.95;;;1.27;;
46607;SDS011;32330;51.936;7.184;2023-04-03T09:51:48;2.63;;;0.73;;
46607;SDS011;32330;51.936;7.184;2023-04-03T09:54:31;1.85;;;0.80;;
46607;SDS011;32330;51.936;7.184;2023-04-03T09:57:01;3.47;;;1.00;;
46607;SDS011;32330;51.936;7.184;2023-04-03T09:59:33;1.75;;;0.98;;
46607;SDS011;32330;51.936;7.184;2023-04-03T10:02:01;2.47;;;0.80;;
46607;SDS011;32330;51.936;7.184;2023-04-03T10:04:37;3.55;;;1.13;;
46607;SDS011;32330;51.936;7.184;2023-04-03T10:10:01;2.35;;;0.90;;
46607;SDS011;32330;51.936;7.184;2023-04-03T10:12:30;2.90;;;0.80;;
46607;SDS011;32330;51.936;7.184;2023-04-03T10:14:57;2.03;;;0.70;;
46607;SDS011;32330;51.936;7.184;2023-04-03T10:17:35;2.40;;;0.73;;
46607;SDS011;32330;51.936;7.184;2023-04-03T10:20:15;3.08;;;1.00;;
46607;SDS011;32330;51.936;7.184;2023-04-03T10:22:56;2.70;;;0.73;;
46607;SDS011;32330;51.936;7.184;2023-04-03T10:25:32;2.60;;;0.75;;
46607;SDS011;32330;51.936;7.184;2023-04-03T10:28:05;2.88;;;0.93;;
46607;SDS011;32330;51.936;7.184;2023-04-03T10:30:40;3.38;;;0.68;;
46607;SDS011;32330;51.936;7.184;2023-04-03T10:33:18;2.30;;;0.75;;
46607;SDS011;32330;51.936;7.184;2023-04-03T10:36:02;2.65;;;1.10;;
46607;SDS011;32330;51.936;7.184;2023-04-03T10:38:39;4.57;;;0.90;;
46607;SDS011;32330;51.936;7.184;2023-04-03T10:41:14;3.67;;;1.00;;
46607;SDS011;32330;51.936;7.184;2023-04-03T10:43:49;2.20;;;0.70;;
46607;SDS011;32330;51.936;7.184;2023-04-03T10:46:23;2.67;;;0.70;;
46607;SDS011;32330;51.936;7.184;2023-04-03T10:48:59;1.45;;;0.60;;
46607;SDS011;32330;51.936;7.184;2023-04-03T10:51:41;2.53;;;1.02;;
46607;SDS011;32330;51.936;7.184;2023-04-03T10:54:11;3.10;;;0.77;;
46607;SDS011;32330;51.936;7.184;2023-04-03T10:56:44;1.73;;;0.80;;
46607;SDS011;32330;51.936;7.184;2023-04-03T10:59:16;3.25;;;0.90;;
46607;SDS011;32330;51.936;7.184;2023-04-03T11:01:49;2.05;;;0.60;;
46607;SDS011;32330;51.936;7.184;2023-04-03T11:04:19;2.90;;;1.10;;
46607;SDS011;32330;51.936;7.184;2023-04-03T11:06:51;1.90;;;0.80;;
46607;SDS011;32330;51.936;7.184;2023-04-03T11:09:25;2.50;;;0.60;;
46607;SDS011;32330;51.936;7.184;2023-04-03T11:11:58;3.25;;;0.60;;
46607;SDS011;32330;51.936;7.184;2023-04-03T11:14:29;2.38;;;0.60;;
46607;SDS011;32330;51.936;7.184;2023-04-03T11:17:03;3.10;;;0.63;;
46607;SDS011;32330;51.936;7.184;2023-04-03T11:19:36;2.30;;;0.80;;
46607;SDS011;32330;51.936;7.184;2023-04-03T11:22:10;3.03;;;1.23;;
46607;SDS011;32330;51.936;7.184;2023-04-03T11:24:46;4.40;;;0.93;;
46607;SDS011;32330;51.936;7.184;2023-04-03T11:27:24;2.80;;;0.93;;
46607;SDS011;32330;51.936;7.184;2023-04-03T11:29:56;3.45;;;0.98;;
46607;SDS011;32330;51.936;7.184;2023-04-03T11:32:28;1.67;;;0.63;;
46607;SDS011;32330;51.936;7.184;2023-04-03T11:35:08;2.35;;;0.73;;
46607;SDS011;32330;51.936;7.184;2023-04-03T11:37:38;4.28;;;0.77;;
46607;SDS011;32330;51.936;7.184;2023-04-03T11:40:08;2.72;;;0.80;;
46607;SDS011;32330;51.936;7.184;2023-04-03T11:42:49;2.90;;;0.60;;
46607;SDS011;32330;51.936;7.184;2023-04-03T11:45:25;2.65;;;1.00;;
46607;SDS011;32330;51.936;7.184;2023-04-03T11:48:02;2.80;;;0.82;;
46607;SDS011;32330;51.936;7.184;2023-04-03T11:50:42;2.78;;;1.17;;
46607;SDS011;32330;51.936;7.184;2023-04-03T11:53:25;4.40;;;0.88;;
46607;SDS011;32330;51.936;7.184;2023-04-03T11:55:56;2.10;;;0.98;;
46607;SDS011;32330;51.936;7.184;2023-04-03T11:58:30;2.13;;;0.93;;
46607;SDS011;32330;51.936;7.184;2023-04-03T12:01:02;3.03;;;0.90;;
46607;SDS011;32330;51.936;7.184;2023-04-03T12:09:31;3.20;;;1.25;;
46607;SDS011;32330;51.936;7.184;2023-04-03T12:12:28;2.80;;;1.23;;
46607;SDS011;32330;51.936;7.184;2023-04-03T12:17:52;1.85;;;1.08;;
46607;SDS011;32330;51.936;7.184;2023-04-03T12:23:26;2.17;;;1.20;;
46607;SDS011;32330;51.936;7.184;2023-04-03T12:26:00;4.30;;;1.88;;
46607;SDS011;32330;51.936;7.184;2023-04-03T12:28:35;3.78;;;1.00;;
46607;SDS011;32330;51.936;7.184;2023-04-03T12:31:06;5.18;;;1.08;;
46607;SDS011;32330;51.936;7.184;2023-04-03T12:33:38;3.45;;;1.65;;
46607;SDS011;32330;51.936;7.184;2023-04-03T12:36:26;2.53;;;1.00;;
46607;SDS011;32330;51.936;7.184;2023-04-03T12:42:11;5.40;;;1.10;;
46607;SDS011;32330;51.936;7.184;2023-04-03T12:44:53;3.55;;;0.93;;
46607;SDS011;32330;51.936;7.184;2023-04-03T12:47:28;2.85;;;1.23;;
46607;SDS011;32330;51.936;7.184;2023-04-03T12:49:59;3.63;;;1.30;;
46607;SDS011;32330;51.936;7.184;2023-04-03T12:52:30;1.98;;;0.93;;
46607;SDS011;32330;51.936;7.184;2023-04-03T12:55:01;3.50;;;1.02;;
46607;SDS011;32330;51.936;7.184;2023-04-03T12:57:30;2.28;;;0.95;;
46607;SDS011;32330;51.936;7.184;2023-04-03T12:59:58;2.28;;;0.90;;
46607;SDS011;32330;51.936;7.184;2023-04-03T13:02:26;4.82;;;1.42;;
46607;SDS011;32330;51.936;7.184;2023-04-03T13:04:57;2.78;;;1.10;;
46607;SDS011;32330;51.936;7.184;2023-04-03T13:07:27;2.42;;;0.90;;
46607;SDS011;32330;51.936;7.184;2023-04-03T13:09:59;6.53;;;1.10;;
46607;SDS011;32330;51.936;7.184;2023-04-03T13:12:30;1.98;;;0.90;;
46607;SDS011;32330;51.936;7.184;2023-04-03T13:14:59;4.00;;;0.95;;
46607;SDS011;32330;51.936;7.184;2023-04-03T13:17:30;5.20;;;1.85;;
46607;SDS011;32330;51.936;7.184;2023-04-03T13:20:09;2.50;;;0.95;;
46607;SDS011;32330;51.936;7.184;2023-04-03T13:22:38;2.38;;;1.00;;
46607;SDS011;32330;51.936;7.184;2023-04-03T13:25:10;3.45;;;1.00;;
46607;SDS011;32330;51.936;7.184;2023-04-03T13:27:39;3.13;;;1.10;;
46607;SDS011;32330;51.936;7.184;2023-04-03T13:30:17;3.50;;;1.30;;
46607;SDS011;32330;51.936;7.184;2023-04-03T13:32:56;2.97;;;1.00;;
46607;SDS011;32330;51.936;7.184;2023-04-03T13:35:25;2.90;;;1.08;;
46607;SDS011;32330;51.936;7.184;2023-04-03T13:37:56;2.40;;;1.02;;
46607;SDS011;32330;51.936;7.184;2023-04-03T13:40:25;5.35;;;1.55;;
46607;SDS011;32330;51.936;7.184;2023-04-03T13:42:59;4.72;;;1.42;;
46607;SDS011;32330;51.936;7.184;2023-04-03T13:45:29;2.58;;;1.05;;
46607;SDS011;32330;51.936;7.184;2023-04-03T13:48:09;3.67;;;1.23;;
46607;SDS011;32330;51.936;7.184;2023-04-03T13:50:50;3.33;;;1.75;;
46607;SDS011;32330;51.936;7.184;2023-04-03T13:53:19;4.15;;;1.50;;
46607;SDS011;32330;51.936;7.184;2023-04-03T13:55:54;2.45;;;0.98;;
46607;SDS011;32330;51.936;7.184;2023-04-03T13:58:24;4.18;;;1.00;;
46607;SDS011;32330;51.936;7.184;2023-04-03T14:00:52;3.33;;;1.13;;
46607;SDS011;32330;51.936;7.184;2023-04-03T14:03:23;4.40;;;1.10;;
46607;SDS011;32330;51.936;7.184;2023-04-03T14:05:54;3.42;;;1.08;;
46607;SDS011;32330;51.936;7.184;2023-04-03T14:08:21;3.08;;;1.40;;
46607;SDS011;32330;51.936;7.184;2023-04-03T14:10:49;1.83;;;1.35;;
46607;SDS011;32330;51.936;7.184;2023-04-03T14:13:17;2.75;;;0.90;;
46607;SDS011;32330;51.936;7.184;2023-04-03T14:15:46;2.42;;;1.08;;
46607;SDS011;32330;51.936;7.184;2023-04-03T14:18:17;3.45;;;1.38;;
46607;SDS011;32330;51.936;7.184;2023-04-03T14:20:47;3.08;;;1.30;;
46607;SDS011;32330;51.936;7.184;2023-04-03T14:23:15;2.67;;;1.08;;
46607;SDS011;32330;51.936;7.184;2023-04-03T14:25:42;4.53;;;1.35;;
46607;SDS011;32330;51.936;7.184;2023-04-03T14:28:14;4.25;;;1.20;;
46607;SDS011;32330;51.936;7.184;2023-04-03T14:30:44;3.65;;;1.20;;
46607;SDS011;32330;51.936;7.184;2023-04-03T14:33:12;3.90;;;1.25;;
46607;SDS011;32330;51.936;7.184;2023-04-03T14:35:41;4.38;;;1.50;;
46607;SDS011;32330;51.936;7.184;2023-04-03T14:38:21;3.33;;;0.98;;
46607;SDS011;32330;51.936;7.184;2023-04-03T14:40:50;3.92;;;1.25;;
46607;SDS011;32330;51.936;7.184;2023-04-03T14:43:18;3.35;;;1.50;;
46607;SDS011;32330;51.936;7.184;2023-04-03T14:45:46;5.25;;;1.40;;
46607;SDS011;32330;51.936;7.184;2023-04-03T14:48:15;4.57;;;1.30;;
46607;SDS011;32330;51.936;7.184;2023-04-03T14:50:44;3.42;;;1.38;;
46607;SDS011;32330;51.936;7.184;2023-04-03T14:53:12;3.67;;;1.33;;
46607;SDS011;32330;51.936;7.184;2023-04-03T14:55:42;2.17;;;1.00;;
46607;SDS011;32330;51.936;7.184;2023-04-03T14:58:12;4.38;;;1.40;;
46607;SDS011;32330;51.936;7.184;2023-04-03T15:00:40;2.80;;;1.42;;
46607;SDS011;32330;51.936;7.184;2023-04-03T15:03:11;5.35;;;1.60;;
46607;SDS011;32330;51.936;7.184;2023-04-03T15:05:40;3.88;;;1.20;;
46607;SDS011;32330;51.936;7.184;2023-04-03T15:08:10;3.95;;;1.20;;
46607;SDS011;32330;51.936;7.184;2023-04-03T15:10:44;4.55;;;1.98;;
46607;SDS011;32330;51.936;7.184;2023-04-03T15:13:12;4.75;;;1.20;;
46607;SDS011;32330;51.936;7.184;2023-04-03T15:15:39;3.97;;;1.30;;
46607;SDS011;32330;51.936;7.184;2023-04-03T15:18:06;4.10;;;1.10;;
46607;SDS011;32330;51.936;7.184;2023-04-03T15:20:36;2.95;;;1.00;;
46607;SDS011;32330;51.936;7.184;2023-04-03T15:23:03;3.13;;;1.13;;
46607;SDS011;32330;51.936;7.184;2023-04-03T15:25:31;3.13;;;1.10;;
46607;SDS011;32330;51.936;7.184;2023-04-03T15:28:00;5.13;;;1.13;;
46607;SDS011;32330;51.936;7.184;2023-04-03T15:30:27;4.38;;;1.10;;
46607;SDS011;32330;51.936;7.184;2023-04-03T15:32:54;2.58;;;1.00;;
46607;SDS011;32330;51.936;7.184;2023-04-03T15:35:21;3.05;;;1.02;;
46607;SDS011;32330;51.936;7.184;2023-04-03T15:37:48;3.40;;;1.15;;
46607;SDS011;32330;51.936;7.184;2023-04-03T15:40:16;3.15;;;1.10;;
46607;SDS011;32330;51.936;7.184;2023-04-03T15:42:43;4.15;;;1.30;;
46607;SDS011;32330;51.936;7.184;2023-04-03T15:45:11;2.70;;;1.10;;
46607;SDS011;32330;51.936;7.184;2023-04-03T15:47:38;3.00;;;1.30;;
46607;SDS011;32330;51.936;7.184;2023-04-03T15:50:06;3.03;;;1.10;;
46607;SDS011;32330;51.936;7.184;2023-04-03T15:52:33;5.00;;;1.25;;
46607;SDS011;32330;51.936;7.184;2023-04-03T15:55:00;2.95;;;1.23;;
46607;SDS011;32330;51.936;7.184;2023-04-03T15:57:27;2.92;;;1.33;;
46607;SDS011;32330;51.936;7.184;2023-04-03T15:59:54;4.63;;;1.33;;
46607;SDS011;32330;51.936;7.184;2023-04-03T16:02:23;3.70;;;1.40;;
46607;SDS011;32330;51.936;7.184;2023-04-03T16:04:53;3.73;;;1.30;;
46607;SDS011;32330;51.936;7.184;2023-04-03T16:07:20;3.75;;;1.25;;
46607;SDS011;32330;51.936;7.184;2023-04-03T16:09:47;3.17;;;1.10;;
46607;SDS011;32330;51.936;7.184;2023-04-03T16:12:14;2.40;;;0.95;;
46607;SDS011;32330;51.936;7.184;2023-04-03T16:14:41;2.53;;;1.30;;
46607;SDS011;32330;51.936;7.184;2023-04-03T16:17:10;2.47;;;0.80;;
46607;SDS011;32330;51.936;7.184;2023-04-03T16:19:39;3.67;;;1.45;;
46607;SDS011;32330;51.936;7.184;2023-04-03T16:22:06;3.78;;;0.98;;
46607;SDS011;32330;51.936;7.184;2023-04-03T16:24:33;4.13;;;1.10;;
46607;SDS011;32330;51.936;7.184;2023-04-03T16:27:00;3.58;;;1.38;;
46607;SDS011;32330;51.936;7.184;2023-04-03T16:29:27;3.17;;;1.15;;
46607;SDS011;32330;51.936;7.184;2023-04-03T16:31:54;3.72;;;1.10;;
46607;SDS011;32330;51.936;7.184;2023-04-03T16:34:23;3.95;;;1.23;;
46607;SDS011;32330;51.936;7.184;2023-04-03T16:36:52;2.60;;;1.27;;
46607;SDS011;32330;51.936;7.184;2023-04-03T16:39:19;3.28;;;1.05;;
46607;SDS011;32330;51.936;7.184;2023-04-03T16:41:46;3.72;;;1.40;;
46607;SDS011;32330;51.936;7.184;2023-04-03T16:44:13;5.80;;;1.60;;
46607;SDS011;32330;51.936;7.184;2023-04-03T16:46:40;3.03;;;1.00;;
46607;SDS011;32330;51.936;7.184;2023-04-03T16:49:07;5.03;;;1.40;;
46607;SDS011;32330;51.936;7.184;2023-04-03T16:51:35;4.38;;;1.10;;
46607;SDS011;32330;51.936;7.184;2023-04-03T16:54:03;2.67;;;1.23;;
46607;SDS011;32330;51.936;7.184;2023-04-03T16:56:31;3.72;;;1.15;;
46607;SDS011;32330;51.936;7.184;2023-04-03T16:58:58;2.10;;;1.20;;
46607;SDS011;32330;51.936;7.184;2023-04-03T17:01:25;2.08;;;1.02;;
46607;SDS011;32330;51.936;7.184;2023-04-03T17:03:52;3.42;;;1.20;;
46607;SDS011;32330;51.936;7.184;2023-04-03T17:06:20;2.63;;;0.95;;
46607;SDS011;32330;51.936;7.184;2023-04-03T17:08:49;2.47;;;1.20;;
46607;SDS011;32330;51.936;7.184;2023-04-03T17:11:28;3.97;;;1.35;;
46607;SDS011;32330;51.936;7.184;2023-04-03T17:13:56;2.85;;;1.25;;
46607;SDS011;32330;51.936;7.184;2023-04-03T17:16:23;3.25;;;1.20;;
46607;SDS011;32330;51.936;7.184;2023-04-03T17:18:51;3.30;;;1.27;;
46607;SDS011;32330;51.936;7.184;2023-04-03T17:21:18;2.38;;;1.10;;
46607;SDS011;32330;51.936;7.184;2023-04-03T17:23:46;2.33;;;1.17;;
46607;SDS011;32330;51.936;7.184;2023-04-03T17:26:17;1.73;;;0.93;;
46607;SDS011;32330;51.936;7.184;2023-04-03T17:28:47;3.13;;;0.98;;
46607;SDS011;32330;51.936;7.184;2023-04-03T17:31:14;3.03;;;1.00;;
46607;SDS011;32330;51.936;7.184;2023-04-03T17:33:41;3.63;;;1.20;;
46607;SDS011;32330;51.936;7.184;2023-04-03T17:36:08;2.10;;;1.17;;
46607;SDS011;32330;51.936;7.184;2023-04-03T17:38:35;2.83;;;0.90;;
46607;SDS011;32330;51.936;7.184;2023-04-03T17:41:03;1.83;;;0.95;;
46607;SDS011;32330;51.936;7.184;2023-04-03T17:43:32;3.00;;;1.17;;
46607;SDS011;32330;51.936;7.184;2023-04-03T17:46:02;3.47;;;1.20;;
46607;SDS011;32330;51.936;7.184;2023-04-03T17:48:31;3.35;;;0.90;;
46607;SDS011;32330;51.936;7.184;2023-04-03T17:51:02;3.88;;;1.05;;
46607;SDS011;32330;51.936;7.184;2023-04-03T17:53:29;4.03;;;1.13;;
46607;SDS011;32330;51.936;7.184;2023-04-03T17:55:56;3.60;;;1.25;;
46607;SDS011;32330;51.936;7.184;2023-04-03T17:58:23;3.63;;;1.13;;
46607;SDS011;32330;51.936;7.184;2023-04-03T18:00:50;4.22;;;1.27;;
46607;SDS011;32330;51.936;7.184;2023-04-03T18:03:19;3.10;;;1.60;;
46607;SDS011;32330;51.936;7.184;2023-04-03T18:05:46;5.90;;;1.10;;
46607;SDS011;32330;51.936;7.184;2023-04-03T18:08:15;4.32;;;1.15;;
46607;SDS011;32330;51.936;7.184;2023-04-03T18:10:42;3.20;;;0.95;;
46607;SDS011;32330;51.936;7.184;2023-04-03T18:13:09;2.88;;;0.98;;
46607;SDS011;32330;51.936;7.184;2023-04-03T18:15:37;2.80;;;1.00;;
46607;SDS011;32330;51.936;7.184;2023-04-03T18:18:09;3.35;;;1.25;;
46607;SDS011;32330;51.936;7.184;2023-04-03T18:20:38;4.30;;;1.50;;
46607;SDS011;32330;51.936;7.184;2023-04-03T18:23:05;2.65;;;1.10;;
46607;SDS011;32330;51.936;7.184;2023-04-03T18:25:32;2.50;;;1.05;;
46607;SDS011;32330;51.936;7.184;2023-04-03T18:27:59;2.70;;;1.00;;
46607;SDS011;32330;51.936;7.184;2023-04-03T18:30:30;3.20;;;1.13;;
46607;SDS011;32330;51.936;7.184;2023-04-03T18:32:58;4.47;;;1.50;;
46607;SDS011;32330;51.936;7.184;2023-04-03T18:35:25;3.30;;;1.23;;
46607;SDS011;32330;51.936;7.184;2023-04-03T18:37:53;2.85;;;0.82;;
46607;SDS011;32330;51.936;7.184;2023-04-03T18:40:20;4.53;;;1.20;;
46607;SDS011;32330;51.936;7.184;2023-04-03T18:42:47;3.42;;;1.23;;
46607;SDS011;32330;51.936;7.184;2023-04-03T18:45:15;3.40;;;1.17;;
46607;SDS011;32330;51.936;7.184;2023-04-03T18:47:46;2.65;;;1.10;;
46607;SDS011;32330;51.936;7.184;2023-04-03T18:50:13;3.70;;;1.63;;
46607;SDS011;32330;51.936;7.184;2023-04-03T18:52:41;3.75;;;2.00;;
46607;SDS011;32330;51.936;7.184;2023-04-03T18:55:09;6.47;;;3.17;;
46607;SDS011;32330;51.936;7.184;2023-04-03T18:57:38;6.75;;;3.08;;
46607;SDS011;32330;51.936;7.184;2023-04-03T19:00:05;3.75;;;2.33;;
46607;SDS011;32330;51.936;7.184;2023-04-03T19:02:33;4.72;;;2.10;;
46607;SDS011;32330;51.936;7.184;2023-04-03T19:05:01;5.85;;;2.20;;
46607;SDS011;32330;51.936;7.184;2023-04-03T19:07:28;5.32;;;1.90;;